createdAt,value
2023-10-26T00:00:00.545Z,28.41
2023-10-26T00:01:02.871Z,32.17
2023-10-26T00:02:05.195Z,30.31
2023-10-26T00:03:07.316Z,28.62
2023-10-26T00:04:09.875Z,33.17
2023-10-26T00:05:12.166Z,34.37
2023-10-26T00:06:14.656Z,30.78
2023-10-26T00:07:16.756Z,31.54
2023-10-26T00:08:18.758Z,31.49
2023-10-26T00:09:20.724Z,31.55
2023-10-26T00:10:23.450Z,32.43
2023-10-26T00:11:26.089Z,30.19
2023-10-26T00:12:28.189Z,34.25
2023-10-26T00:13:30.275Z,36.08
2023-10-26T00:14:32.188Z,33.56
2023-10-26T00:15:34.581Z,32.61
2023-10-26T00:16:37.804Z,31.53
2023-10-26T00:17:39.845Z,33.65
2023-10-26T00:18:41.996Z,33.64
2023-10-26T00:19:44.058Z,35.91
2023-10-26T00:20:46.276Z,32.35
2023-10-26T00:21:48.664Z,31.20
2023-10-26T00:22:50.828Z,33.77
2023-10-26T00:23:52.986Z,29.15
2023-10-26T00:24:55.064Z,29.50
2023-10-26T00:25:56.974Z,30.51
2023-10-26T00:27:00.230Z,32.99
2023-10-26T00:28:02.257Z,30.89
2023-10-26T00:29:04.291Z,33.32
2023-10-26T00:30:10.801Z,27.67
2023-10-26T00:31:12.862Z,27.35
2023-10-26T00:32:15.222Z,29.00
2023-10-26T00:33:18.615Z,25.20
2023-10-26T00:34:22.877Z,28.38
2023-10-26T00:35:25.009Z,28.83
2023-10-26T00:36:27.261Z,23.63
2023-10-26T00:37:29.760Z,24.46
2023-10-26T00:38:32.631Z,23.40
2023-10-26T00:39:35.443Z,24.21
2023-10-26T00:40:37.884Z,26.05
2023-10-26T00:41:39.976Z,22.04
2023-10-26T00:42:42.118Z,24.05
2023-10-26T00:43:44.127Z,27.08
2023-10-26T00:44:46.080Z,19.33
2023-10-26T00:45:53.002Z,22.51
2023-10-26T00:46:55.558Z,23.98
2023-10-26T00:47:58.119Z,26.46
2023-10-26T00:49:00.212Z,22.56
2023-10-26T00:50:02.679Z,22.36
2023-10-26T00:51:05.453Z,21.04
2023-10-26T00:52:09.349Z,18.22
2023-10-26T00:53:13.375Z,18.45
2023-10-26T00:54:17.446Z,21.32
2023-10-26T00:55:20.433Z,24.34
2023-10-26T00:56:23.247Z,22.82
2023-10-26T00:57:28.544Z,20.37
2023-10-26T00:58:30.589Z,22.07
2023-10-26T00:59:34.262Z,17.97
2023-10-26T01:00:38.373Z,21.79
2023-10-26T01:01:40.302Z,19.46
2023-10-26T01:02:44.748Z,17.63
2023-10-26T01:03:49.355Z,16.67
2023-10-26T01:04:51.297Z,17.94
2023-10-26T01:05:53.930Z,17.59
2023-10-26T01:06:56.213Z,17.84
2023-10-26T01:07:58.290Z,16.69
2023-10-26T01:09:01.808Z,16.53
2023-10-26T01:10:04.612Z,15.44
2023-10-26T01:11:06.855Z,15.35
2023-10-26T01:12:09.882Z,14.08
2023-10-26T01:13:13.480Z,14.88
2023-10-26T01:14:16.152Z,14.89
2023-10-26T01:15:18.311Z,14.48
2023-10-26T01:16:20.731Z,13.80
2023-10-26T01:17:23.587Z,13.87
2023-10-26T01:18:26.782Z,14.53
2023-10-26T01:19:43.906Z,12.66
2023-10-26T01:20:46.232Z,11.52
2023-10-26T01:21:49.965Z,12.53
2023-10-26T01:22:52.050Z,11.60
2023-10-26T01:23:54.357Z,13.01
2023-10-26T01:24:56.313Z,14.51
2023-10-26T01:25:58.664Z,12.07
2023-10-26T01:27:01.317Z,14.59
2023-10-26T01:28:03.635Z,11.53
2023-10-26T01:29:05.636Z,14.39
2023-10-26T01:30:09.357Z,12.32
2023-10-26T01:31:11.356Z,13.54
2023-10-26T01:32:15.018Z,13.58
2023-10-26T01:33:17.105Z,10.64
2023-10-26T01:34:19.514Z,14.23
2023-10-26T01:35:21.441Z,10.11
2023-10-26T01:36:24.767Z,11.89
2023-10-26T01:37:27.349Z,11.87
2023-10-26T01:38:29.274Z,13.61
2023-10-26T01:39:31.910Z,12.10
2023-10-26T01:40:34.009Z,11.99
2023-10-26T01:41:35.990Z,10.63
2023-10-26T01:42:38.051Z,10.28
2023-10-26T01:43:40.102Z,10.99
2023-10-26T01:44:42.476Z,10.58
2023-10-26T01:45:46.180Z,11.23
2023-10-26T01:46:48.530Z,9.37
2023-10-26T01:47:50.783Z,11.37
2023-10-26T01:48:52.949Z,9.44
2023-10-26T01:49:55.187Z,9.82
2023-10-26T01:50:57.315Z,11.07
2023-10-26T01:51:59.313Z,12.31
2023-10-26T01:53:01.325Z,9.93
2023-10-26T01:54:03.754Z,11.25
2023-10-26T01:55:07.531Z,10.67
2023-10-26T01:56:11.903Z,10.23
2023-10-26T01:57:14.241Z,8.86
2023-10-26T01:58:16.822Z,11.08
2023-10-26T01:59:18.817Z,11.19
2023-10-26T02:00:21.380Z,8.87
2023-10-26T02:01:23.955Z,11.09
2023-10-26T02:02:25.945Z,10.64
2023-10-26T02:03:28.262Z,9.74
2023-10-26T02:04:30.745Z,11.59
2023-10-26T02:05:33.416Z,9.87
2023-10-26T02:06:35.657Z,9.92
2023-10-26T02:07:37.886Z,11.40
2023-10-26T02:08:39.766Z,10.59
2023-10-26T02:09:43.595Z,11.30
2023-10-26T02:10:47.004Z,10.57
2023-10-26T02:11:49.047Z,11.68
2023-10-26T02:12:51.033Z,11.27
2023-10-26T02:13:54.856Z,11.85
2023-10-26T02:14:57.212Z,11.64
2023-10-26T02:15:59.199Z,13.44
2023-10-26T02:17:01.276Z,12.61
2023-10-26T02:18:04.082Z,14.50
2023-10-26T02:19:06.201Z,13.91
2023-10-26T02:20:09.462Z,11.79
2023-10-26T02:21:11.819Z,13.09
2023-10-26T02:22:13.847Z,13.03
2023-10-26T02:23:16.137Z,13.49
2023-10-26T02:24:18.234Z,12.82
2023-10-26T02:25:20.412Z,11.63
2023-10-26T02:26:23.891Z,11.90
2023-10-26T02:27:25.842Z,11.06
2023-10-26T02:28:29.809Z,14.37
2023-10-26T02:29:31.957Z,12.60
2023-10-26T02:30:36.110Z,15.26
2023-10-26T02:31:38.363Z,11.59
2023-10-26T02:32:41.439Z,13.48
2023-10-26T02:33:43.514Z,12.82
2023-10-26T02:34:45.823Z,12.99
2023-10-26T02:35:47.952Z,13.41
2023-10-26T02:36:52.344Z,12.03
2023-10-26T02:37:54.379Z,11.55
2023-10-26T02:38:56.742Z,13.08
2023-10-26T02:39:59.372Z,12.59
2023-10-26T02:41:05.752Z,13.14
2023-10-26T02:42:08.055Z,12.53
2023-10-26T02:43:10.059Z,11.65
2023-10-26T02:44:12.097Z,14.65
2023-10-26T02:45:14.989Z,12.87
2023-10-26T02:46:17.092Z,13.44
2023-10-26T02:47:19.008Z,16.81
2023-10-26T02:48:20.966Z,14.97
2023-10-26T02:49:23.123Z,14.89
2023-10-26T02:50:25.654Z,13.85
2023-10-26T02:51:27.627Z,16.74
2023-10-26T02:52:29.572Z,14.35
2023-10-26T02:53:32.005Z,14.05
2023-10-26T02:54:34.103Z,12.53
2023-10-26T02:55:38.173Z,12.29
2023-10-26T02:56:40.367Z,11.48
2023-10-26T02:57:42.475Z,12.83
2023-10-26T02:58:44.667Z,11.71
2023-10-26T02:59:46.694Z,10.56
2023-10-26T03:00:48.817Z,10.77
2023-10-26T03:01:50.845Z,11.83
2023-10-26T03:02:52.932Z,9.41
2023-10-26T03:03:55.025Z,10.60
2023-10-26T03:04:57.071Z,11.85
2023-10-26T03:06:00.106Z,9.89
2023-10-26T03:07:02.339Z,10.66
2023-10-26T03:08:05.476Z,11.35
2023-10-26T03:09:08.027Z,12.03
2023-10-26T03:10:10.358Z,11.40
2023-10-26T03:11:12.336Z,10.09
2023-10-26T03:12:14.415Z,12.67
2023-10-26T03:13:16.526Z,11.97
2023-10-26T03:14:18.542Z,11.53
2023-10-26T03:15:21.033Z,12.31
2023-10-26T03:16:23.422Z,12.43
2023-10-26T03:17:25.511Z,12.35
2023-10-26T03:18:29.439Z,12.34
2023-10-26T03:19:31.566Z,14.83
2023-10-26T03:20:33.661Z,13.25
2023-10-26T03:21:36.617Z,12.39
2023-10-26T03:22:39.744Z,13.34
2023-10-26T03:23:41.687Z,13.00
2023-10-26T03:24:43.933Z,11.99
2023-10-26T03:25:46.093Z,14.43
2023-10-26T03:26:48.225Z,13.23
2023-10-26T03:27:53.267Z,14.39
2023-10-26T03:28:55.314Z,14.04
2023-10-26T03:29:57.397Z,12.71
2023-10-26T03:30:59.415Z,12.94
2023-10-26T03:32:01.460Z,13.23
2023-10-26T03:33:03.557Z,12.33
2023-10-26T03:34:05.666Z,14.38
2023-10-26T03:35:09.232Z,16.87
2023-10-26T03:36:15.890Z,13.38
2023-10-26T03:37:17.955Z,15.41
2023-10-26T03:38:20.015Z,13.89
2023-10-26T03:39:22.325Z,12.32
2023-10-26T03:40:24.562Z,14.01
2023-10-26T03:41:26.754Z,14.27
2023-10-26T03:42:28.814Z,15.05
2023-10-26T03:43:30.784Z,13.33
2023-10-26T03:44:32.673Z,14.43
2023-10-26T03:45:34.601Z,12.01
2023-10-26T03:46:37.334Z,12.55
2023-10-26T03:47:40.785Z,14.00
2023-10-26T03:48:43.005Z,13.19
2023-10-26T03:49:45.244Z,15.88
2023-10-26T03:50:47.540Z,12.60
2023-10-26T03:51:49.788Z,13.29
2023-10-26T03:52:51.731Z,14.31
2023-10-26T03:53:53.847Z,13.67
2023-10-26T03:54:56.025Z,14.65
2023-10-26T03:55:58.430Z,14.87
2023-10-26T03:57:00.495Z,14.08
2023-10-26T03:58:02.471Z,11.89
2023-10-26T03:59:05.041Z,13.73
2023-10-26T04:00:09.046Z,11.28
2023-10-26T04:01:12.081Z,12.62
2023-10-26T04:02:14.114Z,14.61
2023-10-26T04:03:17.076Z,12.51
2023-10-26T04:04:19.044Z,19.55
2023-10-26T04:05:21.149Z,13.98
2023-10-26T04:06:23.416Z,13.15
2023-10-26T04:07:25.392Z,17.59
2023-10-26T04:08:29.314Z,14.45
2023-10-26T04:09:31.372Z,15.43
2023-10-26T04:10:34.550Z,30.99
2023-10-26T04:11:36.544Z,12.45
2023-10-26T04:12:38.635Z,15.55
2023-10-26T04:13:40.536Z,14.14
2023-10-26T04:14:42.646Z,11.75
2023-10-26T04:15:44.866Z,10.87
2023-10-26T04:16:47.212Z,12.10
2023-10-26T04:17:50.387Z,10.91
2023-10-26T04:18:52.490Z,12.85
2023-10-26T04:19:54.387Z,11.39
2023-10-26T04:20:56.626Z,12.33
2023-10-26T04:21:58.718Z,11.95
2023-10-26T04:23:00.745Z,13.40
2023-10-26T04:24:03.044Z,10.60
2023-10-26T04:25:05.768Z,14.63
2023-10-26T04:26:08.255Z,13.48
2023-10-26T04:27:11.313Z,14.51
2023-10-26T04:28:16.279Z,12.16
2023-10-26T04:29:18.337Z,10.18
2023-10-26T04:30:20.524Z,13.95
2023-10-26T04:31:22.554Z,10.83
2023-10-26T04:32:24.893Z,13.03
2023-10-26T04:33:26.919Z,12.64
2023-10-26T04:34:29.685Z,11.37
2023-10-26T04:35:32.818Z,10.67
2023-10-26T04:36:34.835Z,10.97
2023-10-26T04:37:36.795Z,12.40
2023-10-26T04:38:38.733Z,11.05
2023-10-26T04:39:40.773Z,10.01
2023-10-26T04:40:43.352Z,10.75
2023-10-26T04:41:45.398Z,9.99
2023-10-26T04:42:47.664Z,11.27
2023-10-26T04:43:51.926Z,10.75
2023-10-26T04:44:53.985Z,10.65
2023-10-26T04:45:56.011Z,8.74
2023-10-26T04:46:58.106Z,8.70
2023-10-26T04:48:00.633Z,11.71
2023-10-26T04:49:03.789Z,10.62
2023-10-26T04:50:08.770Z,9.66
2023-10-26T04:51:10.761Z,12.19
2023-10-26T04:52:13.973Z,12.60
2023-10-26T04:53:15.996Z,8.51
2023-10-26T04:54:18.053Z,10.03
2023-10-26T04:55:20.088Z,10.13
2023-10-26T04:56:22.180Z,9.44
2023-10-26T04:57:24.110Z,10.82
2023-10-26T04:58:26.117Z,10.47
2023-10-26T04:59:28.451Z,8.19
2023-10-26T05:00:33.102Z,9.26
2023-10-26T05:01:35.667Z,9.73
2023-10-26T05:02:38.778Z,8.88
2023-10-26T05:03:41.131Z,9.48
2023-10-26T05:04:43.421Z,10.16
2023-10-26T05:05:45.884Z,9.42
2023-10-26T05:06:48.229Z,8.53
2023-10-26T05:07:50.314Z,10.40
2023-10-26T05:08:52.241Z,9.87
2023-10-26T05:09:54.281Z,9.93
2023-10-26T05:10:56.473Z,7.47
2023-10-26T05:11:58.410Z,8.35
2023-10-26T05:13:00.577Z,9.49
2023-10-26T05:14:02.826Z,8.29
2023-10-26T05:15:07.256Z,7.81
2023-10-26T05:16:11.787Z,8.48
2023-10-26T05:17:13.993Z,8.73
2023-10-26T05:18:16.123Z,8.27
2023-10-26T05:19:18.238Z,10.67
2023-10-26T05:20:20.430Z,8.41
2023-10-26T05:21:22.577Z,9.53
2023-10-26T05:22:24.611Z,9.96
2023-10-26T05:23:27.092Z,10.10
2023-10-26T05:24:29.494Z,8.27
2023-10-26T05:25:32.946Z,10.25
2023-10-26T05:26:35.081Z,8.95
2023-10-26T05:27:37.645Z,10.47
2023-10-26T05:28:39.895Z,7.37
2023-10-26T05:29:42.187Z,9.00
2023-10-26T05:30:44.346Z,8.29
2023-10-26T05:31:46.397Z,9.21
2023-10-26T05:32:49.991Z,8.55
2023-10-26T05:33:52.153Z,10.22
2023-10-26T05:34:54.467Z,8.26
2023-10-26T05:35:56.727Z,10.44
2023-10-26T05:36:59.001Z,11.53
2023-10-26T05:38:01.032Z,9.47
2023-10-26T05:39:03.287Z,9.39
2023-10-26T05:40:06.615Z,10.25
2023-10-26T05:41:08.749Z,9.56
2023-10-26T05:42:13.368Z,10.13
2023-10-26T05:43:15.460Z,11.23
2023-10-26T05:44:17.377Z,10.05
2023-10-26T05:45:19.547Z,8.55
2023-10-26T05:46:21.988Z,12.75
2023-10-26T05:47:24.437Z,11.94
2023-10-26T05:48:29.558Z,11.85
2023-10-26T05:49:31.568Z,9.14
2023-10-26T05:50:33.682Z,10.31
2023-10-26T05:51:35.908Z,9.96
2023-10-26T05:52:39.161Z,10.70
2023-10-26T05:53:41.159Z,13.68
2023-10-26T05:54:43.421Z,11.03
2023-10-26T05:55:52.368Z,10.76
2023-10-26T05:56:54.597Z,12.01
2023-10-26T05:57:56.660Z,11.58
2023-10-26T05:59:00.410Z,11.72
2023-10-26T06:00:03.200Z,13.25
2023-10-26T06:01:05.895Z,14.05
2023-10-26T06:02:08.549Z,11.77
2023-10-26T06:03:10.656Z,12.46
2023-10-26T06:04:12.703Z,11.31
2023-10-26T06:05:14.840Z,10.64
2023-10-26T06:06:18.267Z,11.89
2023-10-26T06:07:20.247Z,13.15
2023-10-26T06:08:22.134Z,12.31
2023-10-26T06:09:24.139Z,13.21
2023-10-26T06:10:26.272Z,14.22
2023-10-26T06:11:28.257Z,13.07
2023-10-26T06:12:30.574Z,15.19
2023-10-26T06:13:40.190Z,10.94
2023-10-26T06:14:42.273Z,12.52
2023-10-26T06:15:46.079Z,10.79
2023-10-26T06:16:54.072Z,10.84
2023-10-26T06:18:11.168Z,14.02
2023-10-26T06:19:19.246Z,12.73
2023-10-26T06:20:24.430Z,9.88
2023-10-26T06:21:30.722Z,10.46
2023-10-26T06:22:34.819Z,11.17
2023-10-26T06:23:41.599Z,11.65
2023-10-26T06:24:48.223Z,8.99
2023-10-26T06:25:50.339Z,10.94
2023-10-26T06:26:55.129Z,9.61
2023-10-26T06:28:03.749Z,11.99
2023-10-26T06:29:07.333Z,12.71
2023-10-26T06:30:11.361Z,14.08
2023-10-26T06:31:14.261Z,11.94
2023-10-26T06:32:18.617Z,12.97
2023-10-26T06:33:24.898Z,12.21
2023-10-26T06:34:30.047Z,10.28
2023-10-26T06:35:32.377Z,11.63
2023-10-26T06:36:34.662Z,11.40
2023-10-26T06:37:39.582Z,8.62
2023-10-26T06:38:42.600Z,9.93
2023-10-26T06:39:46.049Z,9.50
2023-10-26T06:40:48.829Z,8.44
2023-10-26T06:41:51.017Z,7.99
2023-10-26T06:42:57.533Z,8.91
2023-10-26T06:43:59.597Z,9.65
2023-10-26T06:45:04.410Z,8.29
2023-10-26T06:46:08.796Z,8.42
2023-10-26T06:47:12.050Z,9.80
2023-10-26T06:48:16.523Z,8.18
2023-10-26T06:49:30.109Z,8.35
2023-10-26T06:50:26.628Z,10.22
2023-10-26T06:51:29.666Z,8.64
2023-10-26T06:52:32.301Z,9.68
2023-10-26T06:53:35.122Z,8.61
2023-10-26T06:54:38.610Z,8.84
2023-10-26T06:55:41.659Z,8.82
2023-10-26T06:56:44.136Z,8.85
2023-10-26T06:57:46.180Z,9.75
2023-10-26T06:58:48.474Z,9.49
2023-10-26T06:59:51.156Z,9.25
2023-10-26T07:00:54.039Z,13.97
2023-10-26T07:02:08.428Z,13.86
2023-10-26T07:03:02.718Z,13.01
2023-10-26T07:04:05.405Z,15.47
2023-10-26T07:05:09.271Z,16.46
2023-10-26T07:06:11.608Z,14.14
2023-10-26T07:07:17.369Z,13.59
2023-10-26T07:08:19.883Z,11.54
2023-10-26T07:09:22.305Z,13.17
2023-10-26T07:10:27.622Z,9.57
2023-10-26T07:11:30.982Z,9.95
2023-10-26T07:12:33.535Z,11.54
2023-10-26T07:13:37.065Z,10.61
2023-10-26T07:14:41.195Z,10.55
2023-10-26T07:15:43.562Z,11.14
2023-10-26T07:16:46.895Z,10.47
2023-10-26T07:17:50.255Z,10.99
2023-10-26T07:18:56.456Z,14.52
2023-10-26T07:19:58.802Z,10.46
2023-10-26T07:21:10.306Z,12.77
2023-10-26T07:23:17.926Z,11.89
2023-10-26T07:24:20.034Z,11.72
2023-10-26T07:25:22.157Z,14.49
2023-10-26T07:26:24.668Z,10.92
2023-10-26T07:27:27.656Z,13.54
2023-10-26T07:28:30.875Z,12.02
2023-10-26T07:29:35.116Z,10.41
2023-10-26T07:30:44.032Z,10.85
2023-10-26T07:31:49.512Z,12.00
2023-10-26T07:32:51.604Z,14.75
2023-10-26T07:33:55.239Z,11.08
2023-10-26T07:34:57.234Z,10.97
2023-10-26T07:35:59.814Z,13.09
2023-10-26T07:37:02.411Z,13.34
2023-10-26T07:38:35.249Z,11.08
2023-10-26T07:39:45.663Z,11.05
2023-10-26T07:40:28.094Z,10.72
2023-10-26T07:41:20.280Z,11.93
2023-10-26T07:42:23.007Z,12.55
2023-10-26T07:43:31.908Z,10.69
2023-10-26T07:44:34.291Z,11.84
2023-10-26T07:45:36.671Z,12.57
2023-10-26T07:46:38.903Z,14.06
2023-10-26T07:47:42.389Z,12.34
2023-10-26T07:48:46.459Z,14.36
2023-10-26T07:49:49.685Z,13.64
2023-10-26T07:50:56.353Z,13.71
2023-10-26T07:51:59.243Z,9.94
2023-10-26T07:53:04.822Z,10.45
2023-10-26T07:54:07.165Z,11.48
2023-10-26T07:55:12.293Z,8.45
2023-10-26T07:56:16.262Z,8.40
2023-10-26T07:57:20.822Z,10.23
2023-10-26T07:58:27.471Z,10.74
2023-10-26T07:59:32.911Z,9.70
2023-10-26T08:00:39.191Z,8.81
2023-10-26T08:01:41.373Z,9.79
2023-10-26T08:02:44.472Z,10.82
2023-10-26T08:03:48.972Z,8.45
2023-10-26T08:04:51.883Z,10.68
2023-10-26T08:05:59.246Z,9.85
2023-10-26T08:07:03.686Z,9.61
2023-10-26T08:08:07.258Z,10.73
2023-10-26T08:09:11.587Z,10.08
2023-10-26T08:10:15.407Z,9.19
2023-10-26T08:11:20.247Z,10.52
2023-10-26T08:12:22.524Z,12.46
2023-10-26T08:13:24.626Z,9.05
2023-10-26T08:16:09.227Z,10.65
2023-10-26T08:16:10.230Z,11.26
2023-10-26T08:16:44.749Z,11.51
2023-10-26T08:17:48.450Z,11.71
2023-10-26T08:18:50.851Z,9.68
2023-10-26T08:19:58.336Z,11.71
2023-10-26T08:21:01.283Z,10.47
2023-10-26T08:22:06.642Z,9.34
2023-10-26T08:23:08.738Z,10.11
2023-10-26T08:24:11.123Z,14.95
2023-10-26T08:25:15.445Z,17.91
2023-10-26T08:26:18.335Z,9.54
2023-10-26T08:27:24.421Z,9.75
2023-10-26T08:28:31.530Z,11.39
2023-10-26T08:29:36.988Z,9.97
2023-10-26T08:30:40.934Z,8.41
2023-10-26T08:31:45.205Z,8.94
2023-10-26T08:32:52.596Z,9.34
2023-10-26T08:33:57.981Z,11.55
2023-10-26T08:35:05.679Z,10.98
2023-10-26T08:36:11.875Z,8.48
2023-10-26T08:37:14.697Z,9.34
2023-10-26T08:38:17.519Z,8.38
2023-10-26T08:39:20.058Z,9.46
2023-10-26T08:40:23.747Z,9.03
2023-10-26T08:41:28.993Z,7.44
2023-10-26T08:42:32.990Z,6.47
2023-10-26T08:43:37.458Z,8.58
2023-10-26T08:44:41.147Z,6.87
2023-10-26T08:47:06.235Z,10.06
2023-10-26T08:48:16.467Z,6.58
2023-10-26T08:49:22.503Z,7.75
2023-10-26T08:50:26.479Z,8.31
2023-10-26T08:51:31.231Z,7.45
2023-10-26T08:52:39.044Z,7.65
2023-10-26T08:53:41.715Z,8.44
2023-10-26T08:54:45.273Z,7.45
2023-10-26T08:55:53.276Z,7.10
2023-10-26T08:56:56.158Z,6.67
2023-10-26T08:57:58.432Z,8.10
2023-10-26T08:59:03.478Z,8.85
2023-10-26T09:00:08.301Z,7.82
2023-10-26T09:01:17.930Z,10.28
2023-10-26T09:02:21.363Z,7.67
2023-10-26T09:03:24.199Z,10.39
2023-10-26T09:04:31.721Z,8.94
2023-10-26T09:05:35.834Z,8.72
2023-10-26T09:07:03.482Z,7.73
2023-10-26T09:08:20.251Z,8.02
2023-10-26T09:09:24.473Z,8.63
2023-10-26T09:10:35.553Z,8.21
2023-10-26T09:11:41.076Z,7.34
2023-10-26T09:13:04.727Z,8.34
2023-10-26T09:14:20.907Z,9.07
2023-10-26T09:15:24.826Z,12.89
2023-10-26T09:16:36.147Z,7.17
2023-10-26T09:17:43.495Z,7.42
2023-10-26T09:18:55.733Z,9.04
2023-10-26T09:19:58.735Z,8.82
2023-10-26T09:21:11.888Z,7.81
2023-10-26T09:22:18.306Z,8.56
2023-10-26T09:23:29.303Z,8.61
2023-10-26T09:24:31.777Z,7.92
2023-10-26T09:25:34.086Z,8.73
2023-10-26T09:26:40.649Z,6.96
2023-10-26T09:27:45.613Z,6.44
2023-10-26T09:28:53.019Z,7.26
2023-10-26T09:29:57.268Z,6.43
2023-10-26T09:31:00.201Z,8.48
2023-10-26T09:32:04.493Z,7.66
2023-10-26T09:33:12.126Z,6.34
2023-10-26T09:34:14.917Z,8.05
2023-10-26T09:35:34.565Z,7.81
2023-10-26T09:36:39.340Z,6.14
2023-10-26T09:37:53.112Z,6.86
2023-10-26T09:38:58.633Z,7.67
2023-10-26T09:40:16.170Z,6.67
2023-10-26T09:41:22.960Z,6.62
2023-10-26T09:42:28.137Z,7.90
2023-10-26T09:43:31.102Z,6.92
2023-10-26T09:44:37.956Z,5.96
2023-10-26T09:45:46.783Z,7.96
2023-10-26T09:46:53.533Z,7.29
2023-10-26T09:48:01.023Z,7.72
2023-10-26T09:49:04.335Z,8.04
2023-10-26T09:50:09.066Z,8.03
2023-10-26T09:51:15.325Z,7.31
2023-10-26T09:52:21.675Z,9.17
2023-10-26T09:53:26.406Z,9.51
2023-10-26T09:54:41.511Z,7.76
2023-10-26T09:55:46.761Z,6.84
2023-10-26T09:56:54.677Z,6.28
2023-10-26T09:58:06.454Z,8.89
2023-10-26T09:59:09.522Z,7.29
2023-10-26T10:00:13.581Z,6.58
2023-10-26T10:01:36.409Z,7.43
2023-10-26T10:02:40.940Z,6.74
2023-10-26T10:03:47.140Z,9.98
2023-10-26T10:04:52.425Z,8.84
2023-10-26T10:05:56.162Z,12.11
2023-10-26T10:07:00.544Z,7.15
2023-10-26T10:08:03.729Z,6.69
2023-10-26T10:09:07.056Z,6.26
2023-10-26T10:10:14.619Z,8.44
2023-10-26T10:11:22.646Z,6.90
2023-10-26T10:12:35.564Z,6.90
2023-10-26T10:13:50.373Z,6.56
2023-10-26T10:14:58.377Z,5.79
2023-10-26T10:16:03.128Z,7.58
2023-10-26T10:17:09.923Z,5.33
2023-10-26T10:18:13.521Z,6.71
2023-10-26T10:19:34.463Z,6.95
2023-10-26T10:20:39.590Z,7.31
2023-10-26T10:21:43.913Z,7.78
2023-10-26T10:22:50.024Z,6.67
2023-10-26T10:23:54.047Z,6.18
2023-10-26T10:24:59.100Z,5.97
2023-10-26T10:26:26.077Z,5.59
2023-10-26T10:27:20.597Z,5.34
2023-10-26T10:28:23.829Z,6.38
2023-10-26T10:29:27.080Z,6.67
2023-10-26T10:30:35.972Z,7.19
2023-10-26T10:31:43.817Z,7.61
2023-10-26T10:32:49.890Z,6.61
2023-10-26T10:34:12.337Z,8.22
2023-10-26T10:35:44.165Z,9.01
2023-10-26T10:37:11.771Z,5.59
2023-10-26T10:38:19.132Z,6.48
2023-10-26T10:39:24.831Z,5.67
2023-10-26T10:40:31.621Z,8.47
2023-10-26T10:41:38.003Z,9.43
2023-10-26T10:42:57.101Z,6.50
2023-10-26T10:44:02.048Z,4.77
2023-10-26T10:45:14.674Z,6.66
2023-10-26T10:46:25.940Z,7.59
2023-10-26T10:47:31.989Z,10.16
2023-10-26T10:48:38.409Z,10.29
2023-10-26T10:49:44.035Z,8.63
2023-10-26T10:50:52.419Z,6.93
2023-10-26T10:51:59.763Z,9.39
2023-10-26T10:53:04.097Z,7.41
2023-10-26T10:54:22.336Z,7.29
2023-10-26T10:55:30.295Z,7.74
2023-10-26T10:56:45.640Z,7.89
2023-10-26T10:57:57.791Z,6.87
2023-10-26T10:59:02.621Z,8.54
2023-10-26T11:00:07.591Z,7.46
2023-10-26T11:01:12.446Z,7.77
2023-10-26T11:02:19.157Z,8.61
2023-10-26T11:03:22.835Z,9.13
2023-10-26T11:04:25.320Z,7.09
2023-10-26T11:05:39.702Z,8.09
2023-10-26T11:06:48.865Z,8.30
2023-10-26T11:07:53.785Z,8.16
2023-10-26T11:09:00.102Z,6.70
2023-10-26T11:10:04.753Z,8.54
2023-10-26T11:11:08.267Z,9.73
2023-10-26T11:12:17.663Z,8.08
2023-10-26T11:13:24.576Z,7.26
2023-10-26T11:14:32.344Z,9.81
2023-10-26T11:16:53.358Z,7.06
2023-10-26T11:17:59.413Z,8.13
2023-10-26T11:19:02.572Z,8.10
2023-10-26T11:20:07.401Z,8.48
2023-10-26T11:21:19.381Z,6.57
2023-10-26T11:22:30.300Z,6.98
2023-10-26T11:23:37.855Z,8.13
2023-10-26T11:24:45.131Z,9.34
2023-10-26T11:25:57.896Z,7.73
2023-10-26T11:27:11.147Z,7.34
2023-10-26T11:28:14.678Z,8.98
2023-10-26T11:29:18.694Z,9.73
2023-10-26T11:30:40.220Z,8.64
2023-10-26T11:31:46.210Z,9.08
2023-10-26T11:32:51.697Z,7.67
2023-10-26T11:35:20.159Z,7.73
2023-10-26T11:36:24.903Z,8.47
2023-10-26T11:37:27.845Z,24.73
2023-10-26T11:38:33.142Z,13.33
2023-10-26T11:39:37.613Z,8.70
2023-10-26T11:40:49.399Z,7.59
2023-10-26T11:43:34.929Z,7.12
2023-10-26T11:44:44.522Z,8.17
2023-10-26T11:45:55.889Z,8.97
2023-10-26T11:46:58.220Z,7.29
2023-10-26T11:48:04.851Z,7.14
2023-10-26T11:49:08.612Z,8.36
2023-10-26T11:50:26.893Z,9.59
2023-10-26T11:51:33.488Z,9.51
2023-10-26T11:52:37.333Z,13.94
2023-10-26T11:53:41.892Z,7.92
2023-10-26T11:54:55.509Z,9.04
2023-10-26T11:56:01.801Z,7.49
2023-10-26T11:57:06.652Z,7.03
2023-10-26T11:58:08.766Z,8.02
2023-10-26T11:59:11.167Z,10.73
2023-10-26T12:00:16.749Z,11.08
2023-10-26T12:01:18.728Z,9.71
2023-10-26T12:02:23.059Z,10.67
2023-10-26T12:03:28.019Z,8.61
2023-10-26T12:04:31.341Z,7.47
2023-10-26T12:05:33.632Z,9.10
2023-10-26T12:06:40.837Z,7.22
2023-10-26T12:07:51.149Z,9.33
2023-10-26T12:08:57.616Z,8.33
2023-10-26T12:10:06.401Z,9.18
2023-10-26T12:11:11.754Z,7.80
2023-10-26T12:12:15.937Z,7.99
2023-10-26T12:13:19.945Z,7.99
2023-10-26T12:14:22.474Z,9.11
2023-10-26T12:15:32.495Z,6.66
2023-10-26T12:16:36.323Z,12.23
2023-10-26T12:17:42.637Z,6.64
2023-10-26T12:18:51.253Z,7.02
2023-10-26T12:19:55.957Z,6.85
2023-10-26T12:20:59.744Z,10.02
2023-10-26T12:22:06.241Z,7.96
2023-10-26T12:23:10.207Z,9.29
2023-10-26T12:24:17.125Z,9.96
2023-10-26T12:25:21.079Z,6.18
2023-10-26T12:26:30.942Z,8.00
2023-10-26T12:28:21.646Z,7.07
2023-10-26T12:28:42.504Z,10.20
2023-10-26T12:29:47.862Z,6.17
2023-10-26T12:30:51.134Z,8.27
2023-10-26T12:31:56.220Z,5.82
2023-10-26T12:32:59.678Z,8.31
2023-10-26T12:34:09.087Z,7.75
2023-10-26T12:35:10.812Z,6.80
2023-10-26T12:36:14.393Z,8.86
2023-10-26T12:37:20.344Z,9.02
2023-10-26T12:38:26.201Z,10.41
2023-10-26T12:39:30.179Z,6.75
2023-10-26T12:40:35.306Z,7.64
2023-10-26T12:41:38.598Z,7.56
2023-10-26T12:42:40.825Z,7.96
2023-10-26T12:43:44.137Z,8.69
2023-10-26T12:44:49.127Z,6.82
2023-10-26T12:45:55.722Z,7.17
2023-10-26T12:46:58.696Z,7.83
2023-10-26T12:48:03.201Z,14.88
2023-10-26T12:49:12.670Z,7.24
2023-10-26T12:50:18.082Z,9.78
2023-10-26T12:51:23.233Z,8.30
2023-10-26T12:52:30.696Z,7.48
2023-10-26T12:53:34.354Z,7.77
2023-10-26T12:54:39.541Z,7.58
2023-10-26T12:55:49.212Z,9.23
2023-10-26T12:56:50.622Z,8.23
2023-10-26T12:57:58.754Z,9.08
2023-10-26T12:59:04.425Z,7.38
2023-10-26T13:01:32.088Z,6.57
2023-10-26T13:02:35.465Z,11.43
2023-10-26T13:03:45.927Z,6.92
2023-10-26T13:04:48.194Z,7.22
2023-10-26T13:05:56.069Z,6.29
2023-10-26T13:07:03.499Z,5.88
2023-10-26T13:08:10.882Z,8.16
2023-10-26T13:09:13.508Z,7.21
2023-10-26T13:10:17.858Z,9.88
2023-10-26T13:11:23.705Z,6.21
2023-10-26T13:12:26.518Z,7.33
2023-10-26T13:13:31.338Z,9.41
2023-10-26T13:14:41.552Z,7.77
2023-10-26T13:15:50.667Z,9.05
2023-10-26T13:16:58.864Z,8.83
2023-10-26T13:18:06.461Z,9.17
2023-10-26T13:19:12.720Z,13.35
2023-10-26T13:20:16.702Z,15.19
2023-10-26T13:21:24.253Z,13.21
2023-10-26T13:22:33.657Z,13.24
2023-10-26T13:23:49.193Z,11.81
2023-10-26T13:24:55.844Z,11.13
2023-10-26T13:26:01.960Z,16.28
2023-10-26T13:27:10.211Z,14.83
2023-10-26T13:28:12.683Z,13.16
2023-10-26T13:29:16.362Z,14.26
2023-10-26T13:30:21.464Z,37.10
2023-10-26T13:31:27.860Z,47.37
2023-10-26T13:32:30.865Z,20.94
2023-10-26T13:33:36.353Z,9.68
2023-10-26T13:34:44.904Z,12.74
2023-10-26T13:35:53.496Z,9.66
2023-10-26T13:37:07.246Z,9.83
2023-10-26T13:38:15.281Z,10.38
2023-10-26T13:39:17.847Z,8.58
2023-10-26T13:40:21.993Z,10.07
2023-10-26T13:41:34.802Z,9.22
2023-10-26T13:42:37.094Z,7.98
2023-10-26T13:43:39.853Z,10.74
2023-10-26T13:44:45.028Z,9.25
2023-10-26T13:45:53.733Z,8.57
2023-10-26T13:46:56.572Z,7.66
2023-10-26T13:48:01.827Z,9.67
2023-10-26T13:49:04.942Z,10.93
2023-10-26T13:50:15.104Z,10.26
2023-10-26T13:51:24.440Z,9.16
2023-10-26T13:52:28.911Z,7.48
2023-10-26T13:53:35.598Z,8.69
2023-10-26T13:54:43.277Z,10.12
2023-10-26T13:55:53.400Z,9.26
2023-10-26T13:56:58.253Z,10.00
2023-10-26T13:58:05.987Z,9.39
2023-10-26T13:59:10.375Z,9.60
2023-10-26T14:00:16.191Z,8.72
2023-10-26T14:01:22.017Z,10.24
2023-10-26T14:02:26.682Z,11.09
2023-10-26T14:03:33.568Z,9.65
2023-10-26T14:04:48.817Z,10.03
2023-10-26T14:05:56.950Z,9.31
2023-10-26T14:07:01.494Z,8.35
2023-10-26T14:08:07.481Z,8.39
2023-10-26T14:10:36.606Z,10.36
2023-10-26T14:11:40.710Z,10.53